createdAt,value
2022-10-17T00:00:41.089Z,95.18
2022-10-17T00:03:07.685Z,95.21
2022-10-17T00:05:34.522Z,95.31
2022-10-17T00:08:01.031Z,95.50
2022-10-17T00:10:27.527Z,95.50
2022-10-17T00:12:54.737Z,95.55
2022-10-17T00:15:23.149Z,95.51
2022-10-17T00:17:50.079Z,95.39
2022-10-17T00:20:16.668Z,94.97
2022-10-17T00:22:45.219Z,94.97
2022-10-17T00:25:12.156Z,93.51
2022-10-17T00:27:40.617Z,94.22
2022-10-17T00:30:10.970Z,92.94
2022-10-17T00:32:37.763Z,92.46
2022-10-17T00:35:04.905Z,93.16
2022-10-17T00:37:32.492Z,92.80
2022-10-17T00:39:59.109Z,93.40
2022-10-17T00:42:27.294Z,93.54
2022-10-17T00:45:06.835Z,93.80
2022-10-17T00:47:35.475Z,93.54
2022-10-17T00:50:03.843Z,93.97
2022-10-17T00:52:31.471Z,94.13
2022-10-17T00:55:04.067Z,94.46
2022-10-17T00:57:32.418Z,94.12
2022-10-17T01:00:02.538Z,94.38
2022-10-17T01:02:29.396Z,94.89
2022-10-17T01:04:59.440Z,95.47
2022-10-17T01:07:28.745Z,95.88
2022-10-17T01:09:57.336Z,95.94
2022-10-17T01:12:41.154Z,95.86
2022-10-17T01:15:25.107Z,95.57
2022-10-17T01:18:25.394Z,95.76
2022-10-17T01:21:25.561Z,95.84
2022-10-17T01:24:16.594Z,96.17
2022-10-17T01:27:01.203Z,96.34
2022-10-17T01:29:58.599Z,96.57
2022-10-17T01:32:39.716Z,96.52
2022-10-17T01:35:20.742Z,96.84
2022-10-17T01:38:13.675Z,96.27
2022-10-17T01:40:50.988Z,96.44
2022-10-17T01:43:25.191Z,96.61
2022-10-17T01:48:38.818Z,96.69
2022-10-17T01:51:18.746Z,96.77
2022-10-17T01:54:11.310Z,96.65
2022-10-17T01:56:41.137Z,96.75
2022-10-17T01:59:14.588Z,96.83
2022-10-17T02:01:43.856Z,95.69
2022-10-17T02:04:11.747Z,95.82
2022-10-17T02:06:38.797Z,96.02
2022-10-17T02:09:26.574Z,96.64
2022-10-17T02:12:11.904Z,96.69
2022-10-17T02:14:55.646Z,97.14
2022-10-17T02:17:40.760Z,97.32
2022-10-17T02:20:33.020Z,97.37
2022-10-17T02:23:27.602Z,97.23
2022-10-17T02:26:03.216Z,97.42
2022-10-17T02:28:32.650Z,97.69
2022-10-17T02:31:04.270Z,97.82
2022-10-17T02:33:44.580Z,97.90
2022-10-17T02:36:16.872Z,97.95
2022-10-17T02:38:45.561Z,97.57
2022-10-17T02:41:16.620Z,97.77
2022-10-17T02:43:45.823Z,97.75
2022-10-17T02:46:21.142Z,97.62
2022-10-17T02:48:57.036Z,97.41
2022-10-17T02:51:32.548Z,97.32
2022-10-17T02:54:23.163Z,97.17
2022-10-17T02:57:12.633Z,97.14
2022-10-17T02:59:41.853Z,97.46
2022-10-17T03:02:08.522Z,97.66
2022-10-17T03:04:35.004Z,97.87
2022-10-17T03:07:01.588Z,97.64
2022-10-17T03:09:28.217Z,97.72
2022-10-17T03:11:54.783Z,97.79
2022-10-17T03:14:21.358Z,97.93
2022-10-17T03:16:47.833Z,97.92
2022-10-17T03:19:14.303Z,98.36
2022-10-17T03:21:40.823Z,98.39
2022-10-17T03:24:07.490Z,98.42
2022-10-17T03:26:34.136Z,98.83
2022-10-17T03:29:00.904Z,99.29
2022-10-17T03:31:27.471Z,99.39
2022-10-17T03:33:53.956Z,99.40
2022-10-17T03:36:20.791Z,99.34
2022-10-17T03:38:48.063Z,99.48
2022-10-17T03:41:14.620Z,99.37
2022-10-17T03:43:41.175Z,98.89
2022-10-17T03:46:07.939Z,98.91
2022-10-17T03:48:34.646Z,99.04
2022-10-17T03:51:03.420Z,98.49
2022-10-17T03:53:30.218Z,98.65
2022-10-17T03:55:57.757Z,98.30
2022-10-17T03:58:24.203Z,97.19
2022-10-17T04:00:50.722Z,97.21
2022-10-17T04:03:17.504Z,97.18
2022-10-17T04:05:44.037Z,97.02
2022-10-17T04:08:10.528Z,97.04
2022-10-17T04:10:37.061Z,96.97
2022-10-17T04:13:03.553Z,97.02
2022-10-17T04:15:30.045Z,96.78
2022-10-17T04:17:56.586Z,97.04
2022-10-17T04:20:23.123Z,97.42
2022-10-17T04:22:49.607Z,97.24
2022-10-17T04:25:26.311Z,97.19
2022-10-17T04:27:52.791Z,97.42
2022-10-17T04:30:19.243Z,97.59
2022-10-17T04:32:45.775Z,97.88
2022-10-17T04:35:12.326Z,97.83
2022-10-17T04:37:38.787Z,97.74
2022-10-17T04:40:05.805Z,98.41
2022-10-17T04:42:32.462Z,98.16
2022-10-17T04:44:59.135Z,97.88
2022-10-17T04:47:25.676Z,98.04
2022-10-17T04:49:52.139Z,98.09
2022-10-17T04:52:18.596Z,97.97
2022-10-17T04:54:45.145Z,97.97
2022-10-17T04:57:11.629Z,98.02
2022-10-17T04:59:38.166Z,98.24
2022-10-17T05:02:05.432Z,98.41
2022-10-17T05:04:31.985Z,98.62
2022-10-17T05:07:08.944Z,98.77
2022-10-17T05:09:35.480Z,98.80
2022-10-17T05:12:04.300Z,99.06
2022-10-17T05:14:36.210Z,98.82
2022-10-17T05:17:02.702Z,98.62
2022-10-17T05:19:29.138Z,98.71
2022-10-17T05:21:55.588Z,98.75
2022-10-17T05:24:22.053Z,98.77
2022-10-17T05:26:51.967Z,98.47
2022-10-17T05:29:18.723Z,98.75
2022-10-17T05:31:45.198Z,99.16
2022-10-17T05:34:13.905Z,99.79
2022-10-17T05:36:40.668Z,99.64
2022-10-17T05:39:07.177Z,99.23
2022-10-17T05:41:33.658Z,99.21
2022-10-17T05:44:03.122Z,99.98
2022-10-17T05:46:32.116Z,100.00
2022-10-17T05:48:58.681Z,99.91
2022-10-17T05:51:25.298Z,100.00
2022-10-17T05:53:51.890Z,100.00
2022-10-17T05:56:24.650Z,100.00
2022-10-17T05:58:54.143Z,100.00
2022-10-17T06:01:21.812Z,100.00
2022-10-17T06:03:48.339Z,100.00
2022-10-17T06:06:15.660Z,100.00
2022-10-17T06:08:42.691Z,100.00
2022-10-17T06:11:10.383Z,100.00
2022-10-17T06:13:38.013Z,100.00
2022-10-17T06:16:04.827Z,100.00
2022-10-17T06:18:31.371Z,100.00
2022-10-17T06:21:05.865Z,100.00
2022-10-17T06:23:33.202Z,100.00
2022-10-17T06:26:05.480Z,100.00
2022-10-17T06:28:32.268Z,100.00
2022-10-17T06:31:09.937Z,100.00
2022-10-17T06:33:36.824Z,100.00
2022-10-17T06:36:04.589Z,100.00
2022-10-17T06:38:31.408Z,100.00
2022-10-17T06:41:08.398Z,100.00
2022-10-17T06:43:36.823Z,100.00
2022-10-17T06:46:04.163Z,100.00
2022-10-17T06:48:30.752Z,100.00
2022-10-17T06:51:01.933Z,100.00
2022-10-17T06:53:35.079Z,100.00
2022-10-17T06:56:14.701Z,100.00
2022-10-17T06:58:41.621Z,100.00
2022-10-17T07:01:13.285Z,100.00
2022-10-17T07:03:41.120Z,100.00
2022-10-17T07:06:08.416Z,100.00
2022-10-17T07:08:45.625Z,100.00
2022-10-17T07:11:15.519Z,100.00
2022-10-17T07:13:44.653Z,100.00
2022-10-17T07:16:11.279Z,100.00
2022-10-17T07:18:38.753Z,100.00
2022-10-17T07:21:23.971Z,100.00
2022-10-17T07:24:15.590Z,100.00
2022-10-17T07:26:43.123Z,99.99
2022-10-17T07:29:10.239Z,99.54
2022-10-17T07:31:45.629Z,99.17
2022-10-17T07:34:12.141Z,99.18
2022-10-17T07:36:48.007Z,98.68
2022-10-17T07:39:15.586Z,98.38
2022-10-17T07:41:42.248Z,98.33
2022-10-17T07:44:11.574Z,98.04
2022-10-17T07:46:38.236Z,98.46
2022-10-17T07:49:04.816Z,97.66
2022-10-17T07:51:31.332Z,97.31
2022-10-17T07:53:57.908Z,97.10
2022-10-17T07:56:24.847Z,96.42
2022-10-17T07:58:52.360Z,95.77
2022-10-17T08:01:19.236Z,95.81
2022-10-17T08:03:47.023Z,94.92
2022-10-17T08:06:14.099Z,94.97
2022-10-17T08:08:41.514Z,94.57
2022-10-17T08:11:11.490Z,93.77
2022-10-17T08:13:38.771Z,92.40
2022-10-17T08:16:08.316Z,92.36
2022-10-17T08:18:36.379Z,92.58
2022-10-17T08:21:08.687Z,90.88
2022-10-17T08:23:36.617Z,90.36
2022-10-17T08:26:05.794Z,90.16
2022-10-17T08:28:35.109Z,90.09
2022-10-17T08:31:03.696Z,90.09
2022-10-17T08:33:30.242Z,87.77
2022-10-17T08:35:59.000Z,87.58
2022-10-17T08:38:27.777Z,87.27
2022-10-17T08:41:00.014Z,85.27
2022-10-17T08:43:39.377Z,83.99
2022-10-17T08:46:08.311Z,84.14
2022-10-17T08:48:44.076Z,84.21
2022-10-17T08:51:21.922Z,84.48
2022-10-17T08:53:57.352Z,83.84
2022-10-17T08:56:44.594Z,83.52
2022-10-17T08:59:18.842Z,82.08
2022-10-17T09:02:10.459Z,81.39
2022-10-17T09:04:58.964Z,81.06
2022-10-17T09:07:47.550Z,80.79
2022-10-17T09:10:50.668Z,81.17
2022-10-17T09:13:51.190Z,79.49
2022-10-17T09:16:43.910Z,78.16
2022-10-17T09:19:24.462Z,78.46
2022-10-17T09:22:03.284Z,78.37
2022-10-17T09:24:38.597Z,77.85
2022-10-17T09:27:11.435Z,77.09
2022-10-17T09:29:42.907Z,76.51
2022-10-17T09:32:17.959Z,75.48
2022-10-17T09:34:44.437Z,74.95
2022-10-17T09:37:16.259Z,75.08
2022-10-17T09:39:44.495Z,75.22
2022-10-17T09:42:18.666Z,75.27
2022-10-17T09:44:48.136Z,74.79
2022-10-17T09:47:33.268Z,73.72
2022-10-17T09:50:01.603Z,73.65
2022-10-17T09:52:40.635Z,73.03
2022-10-17T09:55:18.692Z,72.78
2022-10-17T09:58:06.067Z,72.98
2022-10-17T10:00:35.965Z,72.55
2022-10-17T10:03:22.054Z,72.88
2022-10-17T10:06:06.645Z,71.35
2022-10-17T10:08:35.987Z,71.40
2022-10-17T10:11:13.412Z,70.22
2022-10-17T10:13:40.586Z,71.14
2022-10-17T10:16:42.208Z,68.04
2022-10-17T10:19:31.006Z,68.34
2022-10-17T10:22:04.046Z,68.02
2022-10-17T10:24:31.438Z,68.07
2022-10-17T10:27:01.569Z,67.32
2022-10-17T10:29:32.318Z,66.76
2022-10-17T10:32:08.998Z,65.31
2022-10-17T10:34:37.154Z,64.54
2022-10-17T10:37:18.477Z,66.84
2022-10-17T10:39:51.777Z,64.43
2022-10-17T10:42:29.382Z,65.12
2022-10-17T10:45:02.361Z,63.70
2022-10-17T10:47:30.983Z,64.48
2022-10-17T10:50:17.812Z,64.94
2022-10-17T10:53:03.062Z,65.12
2022-10-17T10:55:40.292Z,66.11
2022-10-17T10:58:35.963Z,65.24
2022-10-17T11:01:15.022Z,66.55
2022-10-17T11:04:17.833Z,66.57
2022-10-17T11:06:46.130Z,65.91
2022-10-17T11:09:34.768Z,64.51
2022-10-17T11:12:16.986Z,63.78
2022-10-17T11:14:52.056Z,64.39
2022-10-17T11:17:35.472Z,63.91
2022-10-17T11:20:20.064Z,64.81
2022-10-17T11:22:55.742Z,64.77
2022-10-17T11:25:33.832Z,63.62
2022-10-17T11:28:04.736Z,63.20
2022-10-17T11:30:57.701Z,63.39
2022-10-17T11:33:50.452Z,63.57
2022-10-17T11:36:20.182Z,63.67
2022-10-17T11:38:55.443Z,63.49
2022-10-17T11:41:36.005Z,62.84
2022-10-17T11:44:41.339Z,62.01
2022-10-17T11:47:07.772Z,62.25
2022-10-17T11:49:42.940Z,62.69
2022-10-17T11:52:59.018Z,62.18
2022-10-17T11:55:24.773Z,62.27
2022-10-17T11:58:20.686Z,61.51
2022-10-17T12:01:12.196Z,62.19
2022-10-17T12:03:58.143Z,62.45
2022-10-17T12:06:43.551Z,62.11
2022-10-17T12:09:54.877Z,61.94
2022-10-17T12:12:28.261Z,61.53
2022-10-17T12:15:15.270Z,61.96
2022-10-17T12:17:54.235Z,60.04
2022-10-17T12:20:21.302Z,60.83
2022-10-17T12:22:49.669Z,61.33
2022-10-17T12:25:22.580Z,60.87
2022-10-17T12:27:50.574Z,60.59
2022-10-17T12:30:22.257Z,61.71
2022-10-17T12:33:26.818Z,61.76
2022-10-17T12:36:27.203Z,61.46
2022-10-17T12:39:02.834Z,62.10
2022-10-17T12:41:38.560Z,63.05
2022-10-17T12:44:14.645Z,61.82
2022-10-17T12:47:08.049Z,62.48
2022-10-17T12:49:41.874Z,60.39
2022-10-17T12:52:11.349Z,62.30
2022-10-17T12:54:47.295Z,61.35
2022-10-17T12:57:24.800Z,62.32
2022-10-17T12:59:56.620Z,62.82
2022-10-17T13:02:28.977Z,61.42
2022-10-17T13:05:25.469Z,61.01
2022-10-17T13:07:53.465Z,61.46
2022-10-17T13:10:23.355Z,61.31
2022-10-17T13:12:53.020Z,61.97
2022-10-17T13:15:20.938Z,62.36
2022-10-17T13:17:56.695Z,60.50
2022-10-17T13:20:29.058Z,61.33
2022-10-17T13:22:58.025Z,61.65
2022-10-17T13:25:26.161Z,61.35
2022-10-17T13:28:04.913Z,61.70
2022-10-17T13:30:34.650Z,62.27
2022-10-17T13:33:02.094Z,62.20
2022-10-17T13:35:58.939Z,61.62
2022-10-17T13:38:29.767Z,61.64
2022-10-17T13:41:05.799Z,60.31
2022-10-17T13:43:43.796Z,61.52
2022-10-17T13:46:36.946Z,61.74
2022-10-17T13:49:30.083Z,61.52
2022-10-17T13:51:58.800Z,61.69
2022-10-17T13:54:37.389Z,61.95
2022-10-17T13:57:05.403Z,62.32
2022-10-17T13:59:40.333Z,61.63
2022-10-17T14:02:23.695Z,61.12
2022-10-17T14:05:17.209Z,61.42
2022-10-17T14:08:10.064Z,61.58
2022-10-17T14:10:38.927Z,61.82
2022-10-17T14:13:08.263Z,61.99
2022-10-17T14:15:36.793Z,61.82
2022-10-17T14:18:08.038Z,61.98
2022-10-17T14:23:42.913Z,62.32
2022-10-17T14:26:09.476Z,62.30
2022-10-17T14:28:36.261Z,62.49
2022-10-17T14:31:14.106Z,62.64
2022-10-17T14:33:49.739Z,62.80
2022-10-17T14:36:19.273Z,62.86
2022-10-17T14:38:51.979Z,62.96
2022-10-17T14:41:47.668Z,62.89
2022-10-17T14:44:23.430Z,62.85
2022-10-17T14:46:54.093Z,63.12
2022-10-17T14:49:27.485Z,63.36
2022-10-17T14:52:18.334Z,63.44
2022-10-17T14:54:57.314Z,63.59
2022-10-17T14:57:25.959Z,63.92
2022-10-17T14:59:55.605Z,64.07
2022-10-17T15:02:24.656Z,64.59
2022-10-17T15:04:51.465Z,65.24
2022-10-17T15:07:18.666Z,65.60
2022-10-17T15:09:47.460Z,65.97
2022-10-17T15:12:19.888Z,66.61
2022-10-17T15:14:48.467Z,66.73
2022-10-17T15:17:20.604Z,66.80
2022-10-17T15:19:48.323Z,67.64
2022-10-17T15:22:16.254Z,68.01
2022-10-17T15:24:43.318Z,68.49
2022-10-17T15:27:24.231Z,69.16
2022-10-17T15:29:51.703Z,69.34
2022-10-17T15:32:18.897Z,70.06
2022-10-17T15:34:45.413Z,70.27
2022-10-17T15:37:25.463Z,70.68
2022-10-17T15:39:54.579Z,70.89
2022-10-17T15:42:23.597Z,70.82
2022-10-17T15:44:50.356Z,71.12
2022-10-17T15:47:35.330Z,71.43
2022-10-17T15:50:02.443Z,71.74
2022-10-17T15:52:29.116Z,71.90
2022-10-17T15:54:57.335Z,72.33
2022-10-17T15:57:30.490Z,72.84
2022-10-17T16:00:01.205Z,72.89
2022-10-17T16:02:27.904Z,73.38
2022-10-17T16:04:54.414Z,73.89
2022-10-17T16:07:29.155Z,74.59
2022-10-17T16:10:02.726Z,75.08
2022-10-17T16:12:50.575Z,75.03
2022-10-17T16:15:29.704Z,75.22
2022-10-17T16:18:48.930Z,75.85
2022-10-17T16:21:17.154Z,76.20
2022-10-17T16:23:44.164Z,76.48
2022-10-17T16:26:14.184Z,76.42
2022-10-17T16:28:45.976Z,76.94
2022-10-17T16:31:23.250Z,76.91
2022-10-17T16:33:52.974Z,77.57
2022-10-17T16:36:19.882Z,77.72
2022-10-17T16:38:47.582Z,78.07
2022-10-17T16:41:36.313Z,78.64
2022-10-17T16:44:06.319Z,78.97
2022-10-17T16:46:33.926Z,79.07
2022-10-17T16:49:00.498Z,79.01
2022-10-17T16:51:29.064Z,78.90
2022-10-17T16:53:57.043Z,78.87
2022-10-17T16:56:24.748Z,78.81
2022-10-17T16:58:51.872Z,79.03
2022-10-17T17:01:21.456Z,78.91
2022-10-17T17:03:48.166Z,79.09
2022-10-17T17:06:20.657Z,79.24
2022-10-17T17:08:48.075Z,79.32
2022-10-17T17:11:18.024Z,79.09
2022-10-17T17:13:44.800Z,79.47
2022-10-17T17:16:16.532Z,79.87
2022-10-17T17:18:43.655Z,80.03
2022-10-17T17:21:10.900Z,80.24
2022-10-17T17:23:40.848Z,80.39
2022-10-17T17:26:10.561Z,80.51
2022-10-17T17:28:37.885Z,80.53
2022-10-17T17:31:10.875Z,80.89
2022-10-17T17:33:38.868Z,81.39
2022-10-17T17:36:06.576Z,81.39
2022-10-17T17:38:35.287Z,81.27
2022-10-17T17:41:02.789Z,81.54
2022-10-17T17:43:29.409Z,81.27
2022-10-17T17:45:55.987Z,81.21
2022-10-17T17:48:22.626Z,80.99
2022-10-17T17:50:49.202Z,81.09
2022-10-17T17:53:16.953Z,80.96
2022-10-17T17:55:44.035Z,80.90
2022-10-17T17:58:12.331Z,80.90
2022-10-17T18:00:40.591Z,81.32
2022-10-17T18:03:07.797Z,80.67
2022-10-17T18:05:34.388Z,80.85
2022-10-17T18:08:00.960Z,80.27
2022-10-17T18:10:29.387Z,80.16
2022-10-17T18:12:55.885Z,80.08
2022-10-17T18:15:22.659Z,80.16
2022-10-17T18:17:49.242Z,80.06
2022-10-17T18:20:15.832Z,80.10
2022-10-17T18:22:42.367Z,80.26
2022-10-17T18:25:09.188Z,79.94
2022-10-17T18:27:35.885Z,79.80
2022-10-17T18:30:02.543Z,79.63
2022-10-17T18:32:32.698Z,79.48
2022-10-17T18:34:59.370Z,79.47
2022-10-17T18:37:26.004Z,79.64
2022-10-17T18:39:55.303Z,79.74
2022-10-17T18:42:21.944Z,79.97
2022-10-17T18:44:48.908Z,80.02
2022-10-17T18:47:15.984Z,79.94
2022-10-17T18:49:42.998Z,80.23
2022-10-17T18:52:09.633Z,80.02
2022-10-17T18:54:36.067Z,80.04
2022-10-17T18:57:02.804Z,80.18
2022-10-17T18:59:29.352Z,80.23
2022-10-17T19:01:55.871Z,80.50
2022-10-17T19:04:22.679Z,80.74
2022-10-17T19:06:49.302Z,80.78
2022-10-17T19:09:16.106Z,80.66
2022-10-17T19:11:43.205Z,80.87
2022-10-17T19:14:14.092Z,80.96
2022-10-17T19:16:45.167Z,80.77
2022-10-17T19:19:16.365Z,81.26
2022-10-17T19:21:43.721Z,81.66
2022-10-17T19:24:16.566Z,80.95
2022-10-17T19:26:44.597Z,81.41
2022-10-17T19:29:15.715Z,81.44
2022-10-17T19:31:42.905Z,81.82
2022-10-17T19:34:10.720Z,81.94
2022-10-17T19:36:37.291Z,82.04
2022-10-17T19:39:10.208Z,82.24
2022-10-17T19:41:36.712Z,82.27
2022-10-17T19:44:03.521Z,82.32
2022-10-17T19:46:31.031Z,82.40
2022-10-17T19:48:57.986Z,82.53
2022-10-17T19:51:25.700Z,82.85
2022-10-17T19:53:54.616Z,83.06
2022-10-17T19:56:22.307Z,82.62
2022-10-17T19:58:50.104Z,82.96
2022-10-17T20:01:25.805Z,82.90
2022-10-17T20:03:52.976Z,82.49
2022-10-17T20:06:20.056Z,82.47
2022-10-17T20:08:46.876Z,82.91
2022-10-17T20:11:16.453Z,83.29
2022-10-17T20:13:43.395Z,83.60
2022-10-17T20:16:16.087Z,83.64
2022-10-17T20:18:42.912Z,83.99
2022-10-17T20:21:13.435Z,84.06
2022-10-17T20:23:41.167Z,84.37
2022-10-17T20:26:37.045Z,84.64
2022-10-17T20:29:01.553Z,84.91
2022-10-17T20:31:28.466Z,84.75
2022-10-17T20:33:59.674Z,85.08
2022-10-17T20:36:26.912Z,85.29
2022-10-17T20:38:55.112Z,85.16
2022-10-17T20:41:22.272Z,85.44
2022-10-17T20:43:51.400Z,85.37
2022-10-17T20:46:29.735Z,85.77
2022-10-17T20:49:02.240Z,85.52
2022-10-17T20:51:28.760Z,85.59
2022-10-17T20:56:38.727Z,85.78
2022-10-17T20:59:07.654Z,85.86
2022-10-17T21:01:35.715Z,86.04
2022-10-17T21:04:26.882Z,86.03
2022-10-17T21:10:41.232Z,86.57
2022-10-17T21:13:07.687Z,86.66
2022-10-17T21:15:34.165Z,86.77
2022-10-17T21:18:00.636Z,86.77
2022-10-17T21:20:27.086Z,86.82
2022-10-17T21:22:53.517Z,86.99
2022-10-17T21:25:19.982Z,87.11
2022-10-17T21:27:46.441Z,87.34
2022-10-17T21:30:12.911Z,87.09
2022-10-17T21:32:53.403Z,87.28
2022-10-17T21:35:20.156Z,87.37
2022-10-17T21:37:46.629Z,87.21
2022-10-17T21:40:13.096Z,87.67
2022-10-17T21:42:39.572Z,87.42
2022-10-17T21:45:15.476Z,87.50
2022-10-17T21:48:11.092Z,87.63
2022-10-17T21:50:33.061Z,87.69
2022-10-17T21:52:59.518Z,87.68
2022-10-17T21:55:25.982Z,88.18
2022-10-17T21:57:52.455Z,88.73
2022-10-17T22:00:19.009Z,88.73
2022-10-17T22:02:45.450Z,88.84
2022-10-17T22:05:11.995Z,89.09
2022-10-17T22:07:38.443Z,89.19
2022-10-17T22:10:05.205Z,89.21
2022-10-17T22:12:33.055Z,89.12
2022-10-17T22:15:03.247Z,89.12
2022-10-17T22:17:30.044Z,89.17
2022-10-17T22:19:56.752Z,89.35
2022-10-17T22:22:23.232Z,89.32
2022-10-17T22:24:49.652Z,89.55
2022-10-17T22:27:16.156Z,89.92
2022-10-17T22:29:42.641Z,89.90
2022-10-17T22:32:09.097Z,89.82
2022-10-17T22:34:35.524Z,90.14
2022-10-17T22:37:02.000Z,89.97
2022-10-17T22:39:29.501Z,90.34
2022-10-17T22:41:56.187Z,90.93
2022-10-17T22:44:22.635Z,90.82
2022-10-17T22:46:49.325Z,90.91
2022-10-17T22:49:15.791Z,91.08
2022-10-17T22:51:42.259Z,91.30
2022-10-17T22:54:08.712Z,91.16
2022-10-17T22:56:35.318Z,91.56
2022-10-17T22:59:01.815Z,91.65
2022-10-17T23:01:28.344Z,92.07
2022-10-17T23:03:54.877Z,92.17
2022-10-17T23:06:23.451Z,92.04
2022-10-17T23:08:50.185Z,92.67
2022-10-17T23:11:17.073Z,92.19
2022-10-17T23:13:43.657Z,91.85
2022-10-17T23:16:10.336Z,91.38
2022-10-17T23:18:37.976Z,91.17
2022-10-17T23:21:05.043Z,90.99
2022-10-17T23:23:31.666Z,90.49
2022-10-17T23:26:06.618Z,90.52
2022-10-17T23:28:35.576Z,90.36
2022-10-17T23:31:18.879Z,90.40
2022-10-17T23:33:46.947Z,90.52
2022-10-17T23:36:15.685Z,90.67
2022-10-17T23:38:43.895Z,90.71
2022-10-17T23:41:11.156Z,90.56
2022-10-17T23:43:37.759Z,90.60
2022-10-17T23:46:05.558Z,90.21
2022-10-17T23:48:32.258Z,90.19
2022-10-17T23:50:58.888Z,90.17
2022-10-17T23:53:26.176Z,90.24
2022-10-17T23:55:52.730Z,90.20
2022-10-17T23:58:19.203Z,89.86
